CCA817 ZBAA-KIAD
Flight info
| Callsign | CCA817 |
|---|---|
| Flight time | N/A |
| Altitude | 31100 |
| Route | MUGLO2G MUGLO W34 VAPGU W100 ORAVA W201 UNSEK A326 DONVO G597 AGAVO/N0488F310 Y644 EGOBA Y697 AGSUS/N0490F330 Y697 LANAT Y51 SAMON Y142 GTC Y512 OATIS Y889 PUTER A590 POXED/N0488F340 A590 PLADO/N0490F350 A590 HAMND DCT SEWAR DCT COHIL DCT YQH/N0473F370 DCT HOGAR DCT 58N110W 54N100W DCT KIROD DCT TADIS DCT SSM/N0479F390 Q917 WOZEE DCT PSB WAYNZ1 |
| Aircraft | B77W/H-SDE1E2E3FGHIJ2J3J4J5M1RWXY/LB1D1 |
Departure
| Time | 2026-05-08 05:39 |
|---|---|
| Airport | Beijing Capital International Airport (ZBAA) |
Arrival
| Time | N/A |
|---|---|
| Airport | Washington Dulles International Airport (KIAD) |
| Time | Latitude | Longitude | Altitude | Speed | Heading |
|---|---|---|---|---|---|
| 2026-05-08 05:29 | 40.07896 | 116.60818 | 129 ft | 0 kts | 143° |
| 2026-05-08 05:30 | 40.07897 | 116.60818 | 124 ft | 1 kts | 143° |
| 2026-05-08 05:30 | 40.07916 | 116.60799 | 123 ft | 4 kts | 143° |
| 2026-05-08 05:30 | 40.07935 | 116.60781 | 123 ft | 4 kts | 137° |
| 2026-05-08 05:31 | 40.07949 | 116.60754 | 123 ft | 4 kts | 95° |
| 2026-05-08 05:31 | 40.07944 | 116.60722 | 123 ft | 4 kts | 59° |
| 2026-05-08 05:31 | 40.07929 | 116.60693 | 123 ft | 4 kts | 51° |
| 2026-05-08 05:31 | 40.07924 | 116.60685 | 123 ft | 0 kts | 53° |
| 2026-05-08 05:33 | 40.07931 | 116.60697 | 123 ft | 4 kts | 53° |
| 2026-05-08 05:34 | 40.07978 | 116.60780 | 123 ft | 16 kts | 53° |
| 2026-05-08 05:34 | 40.08044 | 116.60895 | 125 ft | 16 kts | 53° |
| 2026-05-08 05:34 | 40.08089 | 116.61020 | 124 ft | 16 kts | 81° |
| 2026-05-08 05:34 | 40.08114 | 116.61153 | 127 ft | 16 kts | 50° |
| 2026-05-08 05:35 | 40.08220 | 116.61166 | 126 ft | 16 kts | 355° |
| 2026-05-08 05:35 | 40.08328 | 116.61150 | 126 ft | 16 kts | 353° |
| 2026-05-08 05:35 | 40.08437 | 116.61133 | 125 ft | 16 kts | 353° |
| 2026-05-08 05:35 | 40.08546 | 116.61116 | 126 ft | 16 kts | 353° |
| 2026-05-08 05:36 | 40.08655 | 116.61098 | 126 ft | 16 kts | 353° |
| 2026-05-08 05:36 | 40.08763 | 116.61081 | 124 ft | 16 kts | 353° |
| 2026-05-08 05:36 | 40.08872 | 116.61064 | 126 ft | 16 kts | 353° |
| 2026-05-08 05:36 | 40.08980 | 116.61047 | 125 ft | 16 kts | 353° |
| 2026-05-08 05:37 | 40.09089 | 116.61030 | 126 ft | 16 kts | 353° |
| 2026-05-08 05:37 | 40.09198 | 116.61013 | 125 ft | 16 kts | 353° |
| 2026-05-08 05:37 | 40.09281 | 116.61054 | 127 ft | 0 kts | 65° |
| 2026-05-08 05:37 | 40.09282 | 116.61056 | 127 ft | 2 kts | 65° |
| 2026-05-08 05:38 | 40.09289 | 116.61130 | 125 ft | 11 kts | 99° |
| 2026-05-08 05:38 | 40.09251 | 116.61220 | 125 ft | 11 kts | 137° |
| 2026-05-08 05:38 | 40.09176 | 116.61251 | 125 ft | 12 kts | 171° |
| 2026-05-08 05:38 | 40.09005 | 116.61279 | 125 ft | 49 kts | 173° |
| 2026-05-08 05:39 | 40.08410 | 116.61375 | 126 ft | 121 kts | 173° |
| 2026-05-08 05:39 | 40.07356 | 116.61537 | 127 ft | 180 kts | 173° |
| 2026-05-08 05:39 | 40.06016 | 116.61736 | 424 ft | 197 kts | 173° |
| 2026-05-08 05:39 | 40.04607 | 116.61935 | 942 ft | 205 kts | 174° |
| 2026-05-08 05:40 | 40.03181 | 116.62149 | 1716 ft | 208 kts | 173° |
| 2026-05-08 05:40 | 40.01750 | 116.62549 | 2222 ft | 220 kts | 153° |
| 2026-05-08 05:40 | 40.00571 | 116.63927 | 2512 ft | 235 kts | 129° |
| 2026-05-08 05:40 | 39.99536 | 116.65646 | 3112 ft | 246 kts | 132° |
| 2026-05-08 05:41 | 39.98357 | 116.67291 | 3788 ft | 251 kts | 135° |
| 2026-05-08 05:41 | 39.97440 | 116.69244 | 4272 ft | 264 kts | 104° |
| 2026-05-08 05:41 | 39.97549 | 116.71673 | 4745 ft | 276 kts | 69° |
| 2026-05-08 05:41 | 39.98457 | 116.73868 | 5114 ft | 277 kts | 68° |
| 2026-05-08 05:42 | 39.98870 | 116.76315 | 5503 ft | 280 kts | 89° |
| 2026-05-08 05:42 | 39.99000 | 116.78880 | 6134 ft | 284 kts | 85° |
| 2026-05-08 05:42 | 39.99237 | 116.81453 | 6835 ft | 288 kts | 83° |
| 2026-05-08 05:42 | 39.99515 | 116.84055 | 7457 ft | 292 kts | 82° |
| 2026-05-08 05:43 | 39.99808 | 116.86697 | 8134 ft | 295 kts | 81° |
| 2026-05-08 05:43 | 40.00105 | 116.89362 | 8786 ft | 299 kts | 80° |
| 2026-05-08 05:43 | 40.00404 | 116.92062 | 9420 ft | 303 kts | 80° |
| 2026-05-08 05:43 | 40.00707 | 116.94799 | 10041 ft | 308 kts | 79° |
| 2026-05-08 05:44 | 40.01017 | 116.97600 | 10470 ft | 319 kts | 79° |
| 2026-05-08 05:44 | 40.01077 | 117.00567 | 10546 ft | 340 kts | 101° |
| 2026-05-08 05:44 | 40.00213 | 117.03517 | 10742 ft | 360 kts | 121° |
| 2026-05-08 05:44 | 39.98695 | 117.06218 | 10899 ft | 380 kts | 134° |
| 2026-05-08 05:45 | 39.96699 | 117.08589 | 11222 ft | 394 kts | 146° |
| 2026-05-08 05:45 | 39.94290 | 117.10276 | 11705 ft | 396 kts | 167° |
| 2026-05-08 05:45 | 39.91579 | 117.10802 | 12301 ft | 394 kts | 180° |
| 2026-05-08 05:45 | 39.88824 | 117.11085 | 12858 ft | 399 kts | 179° |
| 2026-05-08 05:46 | 39.86079 | 117.11454 | 13454 ft | 406 kts | 178° |
| 2026-05-08 05:46 | 39.83252 | 117.11885 | 14197 ft | 409 kts | 177° |
| 2026-05-08 05:46 | 39.80431 | 117.12332 | 14834 ft | 414 kts | 177° |
| 2026-05-08 05:46 | 39.77549 | 117.12792 | 15421 ft | 421 kts | 177° |
| 2026-05-08 05:47 | 39.74617 | 117.13260 | 16009 ft | 427 kts | 177° |
| 2026-05-08 05:47 | 39.71652 | 117.13732 | 16600 ft | 432 kts | 176° |
| 2026-05-08 05:47 | 39.68648 | 117.14209 | 17196 ft | 438 kts | 176° |
| 2026-05-08 05:47 | 39.65601 | 117.14692 | 17793 ft | 443 kts | 176° |
| 2026-05-08 05:48 | 39.62525 | 117.15180 | 18376 ft | 449 kts | 176° |
| 2026-05-08 05:48 | 39.59401 | 117.15674 | 18901 ft | 454 kts | 176° |
| 2026-05-08 05:48 | 39.56255 | 117.16171 | 19467 ft | 457 kts | 176° |
| 2026-05-08 05:48 | 39.53084 | 117.16671 | 20043 ft | 461 kts | 176° |
| 2026-05-08 05:49 | 39.49889 | 117.17174 | 20582 ft | 464 kts | 176° |
| 2026-05-08 05:49 | 39.46710 | 117.17977 | 21030 ft | 472 kts | 163° |
| 2026-05-08 05:49 | 39.43759 | 117.19908 | 21407 ft | 478 kts | 148° |
| 2026-05-08 05:49 | 39.40943 | 117.22254 | 21850 ft | 484 kts | 148° |
| 2026-05-08 05:50 | 39.38093 | 117.24598 | 22385 ft | 487 kts | 149° |
| 2026-05-08 05:50 | 39.35200 | 117.26917 | 22947 ft | 490 kts | 150° |
| 2026-05-08 05:50 | 39.32279 | 117.29207 | 23479 ft | 493 kts | 150° |
| 2026-05-08 05:50 | 39.29322 | 117.31494 | 23903 ft | 497 kts | 150° |
| 2026-05-08 05:51 | 39.26337 | 117.33789 | 24299 ft | 501 kts | 151° |
| 2026-05-08 05:51 | 39.23338 | 117.36093 | 24735 ft | 503 kts | 151° |
| 2026-05-08 05:51 | 39.20394 | 117.38359 | 25185 ft | 505 kts | 151° |
| 2026-05-08 05:51 | 39.17372 | 117.40685 | 25556 ft | 509 kts | 151° |
| 2026-05-08 05:52 | 39.14386 | 117.43151 | 25845 ft | 513 kts | 142° |
| 2026-05-08 05:52 | 39.11917 | 117.46495 | 26039 ft | 521 kts | 122° |
| 2026-05-08 05:52 | 39.10281 | 117.50647 | 26373 ft | 521 kts | 107° |
| 2026-05-08 05:52 | 39.09505 | 117.55181 | 26706 ft | 517 kts | 90° |
| 2026-05-08 05:53 | 39.09322 | 117.59762 | 26995 ft | 518 kts | 89° |
| 2026-05-08 05:53 | 39.09154 | 117.64415 | 27294 ft | 523 kts | 89° |
| 2026-05-08 05:53 | 39.08953 | 117.69102 | 27610 ft | 527 kts | 90° |
| 2026-05-08 05:53 | 39.08715 | 117.73835 | 27968 ft | 530 kts | 90° |
| 2026-05-08 05:54 | 39.08455 | 117.78545 | 28300 ft | 533 kts | 90° |
| 2026-05-08 05:54 | 39.08181 | 117.83261 | 28594 ft | 536 kts | 91° |
| 2026-05-08 05:54 | 39.07898 | 117.88072 | 28890 ft | 540 kts | 91° |
| 2026-05-08 05:54 | 39.07614 | 117.92907 | 29178 ft | 542 kts | 91° |
| 2026-05-08 05:55 | 39.07335 | 117.97698 | 29559 ft | 543 kts | 91° |
| 2026-05-08 05:55 | 39.07050 | 118.02545 | 29975 ft | 543 kts | 91° |
| 2026-05-08 05:55 | 39.06618 | 118.07375 | 30368 ft | 545 kts | 96° |
| 2026-05-08 05:55 | 39.05900 | 118.12195 | 30597 ft | 549 kts | 100° |
| 2026-05-08 05:56 | 39.05050 | 118.16967 | 30910 ft | 549 kts | 101° |
| 2026-05-08 05:56 | 39.04185 | 118.21712 | 31158 ft | 551 kts | 101° |
| 2026-05-08 05:56 | 39.03341 | 118.26530 | 31182 ft | 552 kts | 100° |
| 2026-05-08 05:57 | 39.01774 | 118.36154 | 31182 ft | 547 kts | 99° |
| 2026-05-08 05:57 | 39.00255 | 118.45749 | 31195 ft | 548 kts | 99° |
| 2026-05-08 05:58 | 38.98707 | 118.55341 | 31204 ft | 549 kts | 99° |
| 2026-05-08 05:58 | 38.97152 | 118.64942 | 31202 ft | 549 kts | 99° |
| 2026-05-08 05:59 | 38.95592 | 118.74532 | 31197 ft | 539 kts | 99° |
| 2026-05-08 05:59 | 38.94832 | 118.79179 | 31168 ft | 524 kts | 99° |
| 2026-05-08 05:59 | 38.94092 | 118.83686 | 31165 ft | 509 kts | 99° |